Driscoll, North Dakota
Current Conditions -  °F | °C
As of 4:52 AM on Thursday 27 Nov 2014 (Local Time) from KBIS Reporting Station
Overcast Overcast  
Wind Chill: -21°   Ceiling: 1600
Heat Index: -7°   Visibility: 10mi
Dew Point: -12°   Wind: 7mph
Humidity: 79%   Direction: 60°ENE
Pressure: 30.41"   Gusts: NA
Location:  46.84°N, 100.14°W
Report Text: KBIS 271052Z AUTO 06006KT 10SM OVC016 M22/M24 A3041 RMK AO2 SLP349 T12171244
Loading
Personal Weather Stations






























Interactive Weather Map New forecast layout! Learn more

10-Day Weather Forecast

Advertisements
Track Severe Weather on mobile